Time;durP1;ratioP1;P1;durP2;ratioP2;P2;SDS_P1;SDS_P2;PMS_P1;PMS_P2;Temp;Humidity;BMP_temperature;BMP_pressure;BME280_temperature;BME280_humidity;BME280_pressure;Samples;Min_cycle;Max_cycle;Signal;HPM_P1;HPM_P2
2023/01/26 00:00:29;;;;;;;19.80;9.82;;;;;;;;;;5106678;28;20449;-83
2023/01/26 00:02:55;;;;;;;18.13;8.93;;;;;;;;;;5125711;28;20088;-84
2023/01/26 00:05:20;;;;;;;16.33;8.18;;;;;;;;;;5107151;28;20091;-84
2023/01/26 00:07:46;;;;;;;18.75;9.20;;;;;;;;;;5125393;28;20034;-84
2023/01/26 00:10:11;;;;;;;17.38;8.95;;;;;;;;;;5125266;28;20055;-85
2023/01/26 00:12:37;;;;;;;18.13;9.95;;;;;;;;;;5125294;28;20032;-84
2023/01/26 00:15:03;;;;;;;19.58;9.45;;;;;;;;;;5106986;28;20035;-84
2023/01/26 00:17:29;;;;;;;18.92;8.63;;;;;;;;;;5124917;28;20032;-84
2023/01/26 00:19:56;;;;;;;16.73;8.90;;;;;;;;;;5128340;28;20039;-84
2023/01/26 00:22:23;;;;;;;18.83;8.55;;;;;;;;;;5110186;28;20053;-84
2023/01/26 00:24:48;;;;;;;17.15;8.93;;;;;;;;;;5127975;28;20031;-84
2023/01/26 00:27:14;;;;;;;18.30;9.10;;;;;;;;;;5125239;28;20596;-86
2023/01/26 00:29:39;;;;;;;17.83;8.93;;;;;;;;;;5072725;28;20032;-84
2023/01/26 00:32:05;;;;;;;17.58;8.45;;;;;;;;;;5108465;28;20028;-85
2023/01/26 00:34:30;;;;;;;18.10;9.05;;;;;;;;;;5108765;28;20032;-85
2023/01/26 00:36:56;;;;;;;18.80;9.05;;;;;;;;;;5089778;28;20036;-84
2023/01/26 00:39:22;;;;;;;20.33;9.02;;;;;;;;;;5107613;28;20028;-84
2023/01/26 00:42:05;;;;;;;19.40;9.32;;;;;;;;;;5106980;28;20372;-84
2023/01/26 00:44:31;;;;;;;16.48;8.50;;;;;;;;;;5088213;28;20039;-84
2023/01/26 00:46:57;;;;;;;19.30;9.38;;;;;;;;;;5090643;28;20039;-84
2023/01/26 00:49:22;;;;;;;19.55;9.48;;;;;;;;;;5089186;28;20028;-84
2023/01/26 00:51:48;;;;;;;18.67;9.40;;;;;;;;;;5089910;28;20032;-84
2023/01/26 00:54:13;;;;;;;17.73;8.75;;;;;;;;;;5090375;28;20032;-84
2023/01/26 00:56:39;;;;;;;19.05;9.52;;;;;;;;;;5107387;28;20499;-84
2023/01/26 00:59:05;;;;;;;20.02;9.77;;;;;;;;;;5088887;28;20070;-84
2023/01/26 01:01:31;;;;;;;18.13;8.65;;;;;;;;;;5107196;28;20100;-85
2023/01/26 01:03:56;;;;;;;20.02;9.25;;;;;;;;;;5088340;28;20023;-84
2023/01/26 01:06:22;;;;;;;20.20;8.77;;;;;;;;;;5107347;28;20114;-85
2023/01/26 01:08:49;;;;;;;20.15;9.40;;;;;;;;;;5108775;28;20036;-84
2023/01/26 01:11:14;;;;;;;20.98;9.52;;;;;;;;;;5089279;28;20173;-84
2023/01/26 01:13:40;;;;;;;18.20;8.73;;;;;;;;;;5108272;28;20032;-84
2023/01/26 01:16:07;;;;;;;20.45;8.88;;;;;;;;;;5089316;28;20143;-85
2023/01/26 01:18:33;;;;;;;17.85;9.20;;;;;;;;;;5106804;28;20129;-84
2023/01/26 01:20:59;;;;;;;17.90;8.80;;;;;;;;;;5088968;28;20028;-84
2023/01/26 01:23:28;;;;;;;23.95;9.73;;;;;;;;;;5088593;28;20039;-83
2023/01/26 01:25:58;;;;;;;22.33;10.02;;;;;;;;;;5105654;28;20118;-84
2023/01/26 01:28:23;;;;;;;19.60;9.10;;;;;;;;;;5089550;28;20063;-84
2023/01/26 01:30:49;;;;;;;20.33;9.52;;;;;;;;;;5072863;28;20286;-83
2023/01/26 01:33:14;;;;;;;20.27;10.00;;;;;;;;;;5088995;28;20043;-84
2023/01/26 01:35:40;;;;;;;18.65;9.45;;;;;;;;;;5088345;28;20032;-84
2023/01/26 01:38:05;;;;;;;21.40;9.95;;;;;;;;;;5106419;28;20092;-84
2023/01/26 01:40:31;;;;;;;23.10;9.85;;;;;;;;;;5087917;28;20047;-84
2023/01/26 01:42:56;;;;;;;20.80;9.57;;;;;;;;;;5086725;28;20125;-85
2023/01/26 01:45:25;;;;;;;22.40;9.85;;;;;;;;;;5087162;28;20496;-84
2023/01/26 01:47:54;;;;;;;21.00;10.27;;;;;;;;;;5088812;28;20039;-84
2023/01/26 01:50:20;;;;;;;21.85;9.65;;;;;;;;;;5108440;28;20481;-83
2023/01/26 01:52:46;;;;;;;22.23;10.35;;;;;;;;;;5107610;28;20415;-83
2023/01/26 01:55:14;;;;;;;24.20;10.68;;;;;;;;;;5088329;28;20032;-84
2023/01/26 01:57:46;;;;;;;25.08;11.02;;;;;;;;;;5087761;28;20042;-85
2023/01/26 02:00:17;;;;;;;21.92;9.65;;;;;;;;;;5105520;28;20052;-84
2023/01/26 02:03:09;;;;;;;22.02;9.77;;;;;;;;;;5106185;28;20355;-84
2023/01/26 02:05:34;;;;;;;24.55;9.82;;;;;;;;;;5105466;28;20036;-85
2023/01/26 02:08:01;;;;;;;22.02;9.98;;;;;;;;;;5088121;28;20024;-84
2023/01/26 02:10:28;;;;;;;32.42;15.02;;;;;;;;;;5087881;28;20032;-84
2023/01/26 02:12:55;;;;;;;23.95;11.30;;;;;;;;;;5087472;28;20515;-83
2023/01/26 02:15:21;;;;;;;24.50;11.70;;;;;;;;;;5104933;28;20032;-84
2023/01/26 02:17:49;;;;;;;23.98;10.40;;;;;;;;;;5106479;28;20381;-83
2023/01/26 02:20:36;;;;;;;24.83;11.35;;;;;;;;;;5106486;28;20038;-84
2023/01/26 02:23:33;;;;;;;30.90;13.00;;;;;;;;;;5087524;28;20040;-84
2023/01/26 02:26:08;;;;;;;30.45;13.70;;;;;;;;;;5087276;28;20036;-84
2023/01/26 02:28:34;;;;;;;33.05;15.15;;;;;;;;;;5087123;28;20024;-83
2023/01/26 02:31:01;;;;;;;35.15;15.27;;;;;;;;;;5088495;28;20055;-84
2023/01/26 02:33:30;;;;;;;36.08;14.88;;;;;;;;;;5088358;28;20043;-84
2023/01/26 02:36:01;;;;;;;25.88;11.45;;;;;;;;;;5087648;28;20031;-84
2023/01/26 02:38:47;;;;;;;29.55;12.02;;;;;;;;;;5087264;28;20032;-84
2023/01/26 02:42:37;;;;;;;25.25;11.00;;;;;;;;;;5086877;28;20503;-84
2023/01/26 02:44:07;;;;;;;21.65;9.95;;;;;;;;;;5086755;28;20065;-83
2023/01/26 02:46:33;;;;;;;24.65;10.48;;;;;;;;;;5086729;28;20043;-83
2023/01/26 02:51:43;;;;;;;29.02;12.07;;;;;;;;;;5088002;28;20035;-84
2023/01/26 02:54:08;;;;;;;24.95;10.55;;;;;;;;;;5087857;28;20027;-84
2023/01/26 02:56:38;;;;;;;22.38;10.65;;;;;;;;;;5087638;28;20032;-84
2023/01/26 02:59:05;;;;;;;25.30;11.05;;;;;;;;;;5086921;28;20047;-84
2023/01/26 03:01:30;;;;;;;26.42;11.27;;;;;;;;;;5105324;28;20096;-84
2023/01/26 03:03:56;;;;;;;23.52;10.85;;;;;;;;;;5104719;28;20059;-84
2023/01/26 03:06:22;;;;;;;24.10;10.52;;;;;;;;;;5086830;28;20032;-84
2023/01/26 03:08:47;;;;;;;25.52;10.55;;;;;;;;;;5105235;28;20058;-84
2023/01/26 03:11:13;;;;;;;28.00;10.55;;;;;;;;;;5087822;28;20039;-84
2023/01/26 03:13:39;;;;;;;27.60;12.70;;;;;;;;;;5069747;28;20024;-84
2023/01/26 03:16:09;;;;;;;26.85;11.05;;;;;;;;;;5105121;28;20042;-84
2023/01/26 03:29:42;;;;;;;29.45;11.25;;;;;;;;;;5105345;28;20110;-84
2023/01/26 03:32:09;;;;;;;29.13;11.70;;;;;;;;;;5087052;28;20032;-84
2023/01/26 03:34:34;;;;;;;25.83;10.50;;;;;;;;;;5086225;28;20066;-84
2023/01/26 03:37:01;;;;;;;29.73;11.10;;;;;;;;;;5085749;28;20028;-84
2023/01/26 03:56:21;;;;;;;25.48;10.43;;;;;;;;;;5089494;28;20028;-84
2023/01/26 03:58:55;;;;;;;28.75;12.10;;;;;;;;;;5090554;28;20104;-84
2023/01/26 04:01:26;;;;;;;25.77;10.73;;;;;;;;;;5073783;28;20061;-84
2023/01/26 04:09:29;;;;;;;23.73;9.85;;;;;;;;;;5089720;28;20062;-85
2023/01/26 04:11:56;;;;;;;22.77;9.98;;;;;;;;;;5089146;28;20480;-85
2023/01/26 04:22:44;;;;;;;23.10;10.30;;;;;;;;;;5089311;28;20095;-84
2023/01/26 04:25:15;;;;;;;23.00;10.95;;;;;;;;;;5088986;28;20029;-84
2023/01/26 04:27:42;;;;;;;23.67;10.48;;;;;;;;;;5089476;28;20039;-84
2023/01/26 04:30:11;;;;;;;20.85;9.98;;;;;;;;;;5089457;28;20042;-83
2023/01/26 04:32:37;;;;;;;23.20;9.85;;;;;;;;;;5088269;28;20450;-83
2023/01/26 04:35:04;;;;;;;22.85;10.27;;;;;;;;;;5089775;28;20134;-84
2023/01/26 04:37:31;;;;;;;22.63;10.20;;;;;;;;;;5090129;28;20048;-84
2023/01/26 04:39:57;;;;;;;20.58;9.88;;;;;;;;;;5089029;28;20055;-84
2023/01/26 04:42:23;;;;;;;21.65;10.20;;;;;;;;;;5088930;28;20020;-84
2023/01/26 04:44:53;;;;;;;23.60;10.55;;;;;;;;;;5107044;23;20582;-84
2023/01/26 04:47:20;;;;;;;21.05;10.27;;;;;;;;;;5098522;28;20503;-83
2023/01/26 04:49:46;;;;;;;24.40;10.73;;;;;;;;;;5104490;28;20042;-83
2023/01/26 04:52:14;;;;;;;22.45;10.43;;;;;;;;;;5085702;28;20034;-83
2023/01/26 04:54:40;;;;;;;23.85;10.55;;;;;;;;;;5102526;28;20063;-83
2023/01/26 04:57:06;;;;;;;22.70;11.05;;;;;;;;;;5101733;28;20030;-83
2023/01/26 04:59:33;;;;;;;21.20;9.80;;;;;;;;;;5101384;28;20027;-83
2023/01/26 05:01:59;;;;;;;26.52;11.13;;;;;;;;;;5101941;28;20104;-83
2023/01/26 05:04:25;;;;;;;28.13;11.27;;;;;;;;;;5084471;28;20430;-83
2023/01/26 05:06:52;;;;;;;28.73;11.30;;;;;;;;;;5101326;28;20495;-83
2023/01/26 05:09:18;;;;;;;23.75;10.75;;;;;;;;;;5082769;28;20046;-82
2023/01/26 05:11:48;;;;;;;27.08;11.60;;;;;;;;;;5121714;28;20054;-82
2023/01/26 05:14:39;;;;;;;24.08;11.23;;;;;;;;;;5101321;28;20031;-82
2023/01/26 05:17:17;;;;;;;27.65;12.63;;;;;;;;;;5109640;28;20058;-82
2023/01/26 05:20:01;;;;;;;29.98;12.88;;;;;;;;;;5103491;28;20038;-84
2023/01/26 05:22:36;;;;;;;24.00;11.30;;;;;;;;;;5101570;28;20095;-82
2023/01/26 05:25:20;;;;;;;27.35;13.48;;;;;;;;;;5118144;28;20104;-81
2023/01/26 05:27:53;;;;;;;26.30;12.63;;;;;;;;;;5100009;28;20035;-84
2023/01/26 05:30:19;;;;;;;28.17;14.50;;;;;;;;;;5118104;28;20042;-84
2023/01/26 05:32:45;;;;;;;30.40;15.13;;;;;;;;;;5099285;28;20507;-83
2023/01/26 05:35:12;;;;;;;33.65;14.68;;;;;;;;;;5097964;28;20057;-82
2023/01/26 05:37:40;;;;;;;44.97;18.95;;;;;;;;;;5098523;28;20083;-83
2023/01/26 05:40:07;;;;;;;94.28;32.22;;;;;;;;;;5115780;28;20023;-83
2023/01/26 05:42:33;;;;;;;52.78;20.35;;;;;;;;;;5098654;28;20403;-85
2023/01/26 05:45:06;;;;;;;;;;;;;;;;;;5098692;28;20121;-81
2023/01/26 05:47:32;;;;;;;24.02;10.65;;;;;;;;;;5098473;28;19935;-83
2023/01/26 05:49:58;;;;;;;22.38;10.32;;;;;;;;;;5099415;28;20512;-85
2023/01/26 05:52:27;;;;;;;24.50;10.90;;;;;;;;;;5098608;28;20530;-83
2023/01/26 05:54:52;;;;;;;21.17;10.52;;;;;;;;;;5098918;28;20028;-82
2023/01/26 05:57:18;;;;;;;22.67;10.48;;;;;;;;;;5098937;28;20033;-83
2023/01/26 05:59:52;;;;;;;23.42;10.65;;;;;;;;;;5098235;28;20023;-82
2023/01/26 06:02:18;;;;;;;21.92;10.25;;;;;;;;;;5098272;28;20034;-83
2023/01/26 06:04:44;;;;;;;22.15;10.35;;;;;;;;;;5098082;28;20039;-83
2023/01/26 06:07:12;;;;;;;22.67;10.90;;;;;;;;;;5099077;28;20036;-83
2023/01/26 06:09:44;;;;;;;22.13;9.75;;;;;;;;;;5100846;28;20080;-83
2023/01/26 06:12:34;;;;;;;20.88;9.80;;;;;;;;;;5055377;28;20035;-82
2023/01/26 06:15:20;;;;;;;21.52;9.23;;;;;;;;;;5100719;28;20040;-83
2023/01/26 06:17:47;;;;;;;22.13;9.40;;;;;;;;;;5100461;28;20035;-83
2023/01/26 06:20:14;;;;;;;21.42;9.48;;;;;;;;;;5096497;28;20032;-84
2023/01/26 06:22:43;;;;;;;19.25;9.00;;;;;;;;;;5096574;28;20077;-83
2023/01/26 06:25:09;;;;;;;21.80;10.20;;;;;;;;;;5096369;28;20448;-83
2023/01/26 06:27:35;;;;;;;20.25;9.32;;;;;;;;;;5095850;28;20031;-83
2023/01/26 06:30:07;;;;;;;19.73;9.68;;;;;;;;;;5099817;28;20099;-81
2023/01/26 06:32:33;;;;;;;21.60;9.68;;;;;;;;;;5087489;28;20491;-83
2023/01/26 06:34:58;;;;;;;19.52;9.13;;;;;;;;;;5097053;28;20069;-83
2023/01/26 06:37:24;;;;;;;17.83;9.07;;;;;;;;;;5097296;28;20078;-83
2023/01/26 06:39:51;;;;;;;20.50;9.02;;;;;;;;;;5097163;28;20395;-83
2023/01/26 06:42:17;;;;;;;21.95;9.25;;;;;;;;;;5080626;28;20031;-82
2023/01/26 06:44:42;;;;;;;17.77;8.82;;;;;;;;;;5096237;28;20028;-82
2023/01/26 06:47:08;;;;;;;19.10;8.82;;;;;;;;;;5096880;28;20444;-85
2023/01/26 06:49:34;;;;;;;18.45;9.20;;;;;;;;;;5097257;28;20028;-82
2023/01/26 06:52:20;;;;;;;19.80;8.95;;;;;;;;;;5080362;28;20118;-84
2023/01/26 06:54:50;;;;;;;19.38;8.43;;;;;;;;;;5080304;28;20030;-82
2023/01/26 06:57:33;;;;;;;16.63;8.52;;;;;;;;;;5116275;28;20049;-83
2023/01/26 07:00:08;;;;;;;;;;;;;;;;;;5101176;28;20035;-83
2023/01/26 07:02:43;;;;;;;17.95;8.35;;;;;;;;;;5115977;28;19911;-85
2023/01/26 07:05:08;;;;;;;18.38;8.25;;;;;;;;;;5097478;28;20043;-84
2023/01/26 07:07:34;;;;;;;18.27;9.10;;;;;;;;;;5097981;28;20020;-85
2023/01/26 07:10:00;;;;;;;19.17;9.10;;;;;;;;;;5099190;28;20042;-84
2023/01/26 07:12:25;;;;;;;17.02;8.35;;;;;;;;;;5116156;28;20027;-83
2023/01/26 07:14:51;;;;;;;16.83;8.13;;;;;;;;;;5097705;28;20571;-83
2023/01/26 07:17:16;;;;;;;17.50;8.30;;;;;;;;;;5116233;28;20036;-85
2023/01/26 07:19:42;;;;;;;18.10;8.68;;;;;;;;;;5117705;28;20035;-84
2023/01/26 07:22:07;;;;;;;16.63;8.13;;;;;;;;;;5123910;28;20031;-83
2023/01/26 07:24:33;;;;;;;15.68;7.65;;;;;;;;;;5114948;28;20430;-86
2023/01/26 07:26:58;;;;;;;15.90;7.50;;;;;;;;;;5096239;28;20043;-84
2023/01/26 07:29:24;;;;;;;17.27;7.53;;;;;;;;;;5115201;28;20093;-84
2023/01/26 07:31:49;;;;;;;14.50;7.43;;;;;;;;;;5084697;28;20035;-87
2023/01/26 07:34:15;;;;;;;14.00;7.45;;;;;;;;;;5112765;28;20036;-87
2023/01/26 07:36:40;;;;;;;15.50;7.85;;;;;;;;;;5123460;28;20032;-87
2023/01/26 07:39:06;;;;;;;16.75;8.10;;;;;;;;;;5102401;28;20019;-87
2023/01/26 07:41:32;;;;;;;19.95;9.05;;;;;;;;;;5120080;28;20094;-87
2023/01/26 07:43:57;;;;;;;16.95;8.75;;;;;;;;;;5099651;28;20067;-85
2023/01/26 07:46:23;;;;;;;19.23;9.35;;;;;;;;;;5129236;27;20040;-88
2023/01/26 07:48:49;;;;;;;20.33;9.60;;;;;;;;;;5106321;28;20035;-86
2023/01/26 07:51:15;;;;;;;19.05;9.07;;;;;;;;;;5100675;28;20035;-87
2023/01/26 07:53:42;;;;;;;20.30;10.48;;;;;;;;;;5121327;28;20399;-87
2023/01/26 07:56:13;;;;;;;18.40;8.55;;;;;;;;;;5120962;28;20035;-88
2023/01/26 07:58:39;;;;;;;21.13;9.80;;;;;;;;;;5081282;28;20062;-86
2023/01/26 08:01:12;;;;;;;19.17;10.57;;;;;;;;;;5081248;28;20036;-87
2023/01/26 08:03:37;;;;;;;;;;;;;;;;;;5103371;28;20050;-86
2023/01/26 08:06:04;;;;;;;17.83;7.85;;;;;;;;;;5121634;28;19971;-88
2023/01/26 08:08:30;;;;;;;18.45;9.93;;;;;;;;;;5119503;28;20070;-88
2023/01/26 08:10:57;;;;;;;16.60;7.30;;;;;;;;;;5099924;28;20035;-89
2023/01/26 08:13:23;;;;;;;16.65;6.65;;;;;;;;;;5107081;28;20043;-87
2023/01/26 08:15:49;;;;;;;13.30;6.97;;;;;;;;;;5100214;28;20073;-86
2023/01/26 08:18:14;;;;;;;17.45;9.55;;;;;;;;;;5113905;28;20035;-88
2023/01/26 08:20:40;;;;;;;15.98;7.45;;;;;;;;;;5094838;28;20040;-85
2023/01/26 08:23:05;;;;;;;17.65;8.40;;;;;;;;;;5113599;28;20036;-85
2023/01/26 08:25:32;;;;;;;15.68;8.40;;;;;;;;;;5107330;28;20032;-85
2023/01/26 08:27:58;;;;;;;16.73;8.55;;;;;;;;;;5114742;28;20028;-78
2023/01/26 08:30:26;;;;;;;17.10;7.40;;;;;;;;;;5112272;28;20034;-78
2023/01/26 08:32:51;;;;;;;15.85;6.97;;;;;;;;;;5116113;28;20153;-77
2023/01/26 08:35:17;;;;;;;13.60;6.38;;;;;;;;;;5115185;28;20043;-78
2023/01/26 08:37:42;;;;;;;18.55;8.05;;;;;;;;;;5112648;28;20395;-77
2023/01/26 08:40:09;;;;;;;18.73;7.60;;;;;;;;;;5096072;28;20039;-77
2023/01/26 08:42:34;;;;;;;17.33;9.07;;;;;;;;;;5118427;28;20020;-89
2023/01/26 08:45:00;;;;;;;11.73;6.25;;;;;;;;;;5119594;28;20407;-86
2023/01/26 08:47:25;;;;;;;13.32;6.95;;;;;;;;;;5120354;28;20103;-88
2023/01/26 08:49:50;;;;;;;12.13;6.95;;;;;;;;;;5101639;28;20035;-85
2023/01/26 08:52:16;;;;;;;12.13;6.88;;;;;;;;;;5116101;28;20476;-88
2023/01/26 08:54:41;;;;;;;11.23;6.50;;;;;;;;;;5115626;28;20042;-88
2023/01/26 08:57:07;;;;;;;11.82;6.60;;;;;;;;;;5097100;28;20045;-89
2023/01/26 08:59:32;;;;;;;11.70;5.85;;;;;;;;;;5110395;28;20074;-88
2023/01/26 09:01:58;;;;;;;10.55;6.03;;;;;;;;;;5099390;28;20028;-89
2023/01/26 09:04:23;;;;;;;10.75;5.95;;;;;;;;;;5117767;28;20023;-89
2023/01/26 09:06:49;;;;;;;11.82;6.18;;;;;;;;;;5099211;28;20452;-87
2023/01/26 09:09:14;;;;;;;12.13;6.13;;;;;;;;;;5098268;28;20042;-89
2023/01/26 09:11:40;;;;;;;11.43;6.00;;;;;;;;;;5116870;28;20118;-88
2023/01/26 09:14:05;;;;;;;12.95;6.00;;;;;;;;;;5098489;28;20058;-86
2023/01/26 09:16:31;;;;;;;15.85;6.72;;;;;;;;;;5100051;28;20038;-87
2023/01/26 09:18:56;;;;;;;13.98;6.57;;;;;;;;;;5120873;28;20089;-89
2023/01/26 09:21:25;;;;;;;14.45;6.75;;;;;;;;;;5117928;28;20032;-89
2023/01/26 09:23:50;;;;;;;15.48;7.05;;;;;;;;;;5117646;28;20399;-83
2023/01/26 09:26:16;;;;;;;13.15;6.50;;;;;;;;;;5118047;28;20542;-85
2023/01/26 09:28:41;;;;;;;14.15;6.65;;;;;;;;;;5123693;27;20043;-88
2023/01/26 09:31:09;;;;;;;13.57;6.72;;;;;;;;;;5086701;28;20100;-87
2023/01/26 09:33:35;;;;;;;11.90;6.78;;;;;;;;;;5119315;28;20032;-87
2023/01/26 09:36:09;;;;;;;12.40;6.50;;;;;;;;;;5122544;28;20042;-86
2023/01/26 09:38:35;;;;;;;13.73;7.25;;;;;;;;;;5088168;28;20093;-85
2023/01/26 09:41:09;;;;;;;13.27;6.45;;;;;;;;;;5098695;28;20090;-87
2023/01/26 09:43:53;;;;;;;15.00;6.63;;;;;;;;;;5098124;28;20032;-86
2023/01/26 09:46:54;;;;;;;;;;;;;;;;;;5097539;28;20123;-86
2023/01/26 09:49:40;;;;;;;10.55;5.82;;;;;;;;;;5014861;28;19952;-88
2023/01/26 09:52:23;;;;;;;11.93;6.45;;;;;;;;;;5058008;28;20052;-88
2023/01/26 09:54:52;;;;;;;14.45;6.63;;;;;;;;;;5080259;28;20039;-87
2023/01/26 09:57:48;;;;;;;13.07;6.20;;;;;;;;;;5080087;28;20435;-89
2023/01/26 10:00:34;;;;;;;11.15;6.13;;;;;;;;;;5067137;28;20071;-89
2023/01/26 10:03:19;;;;;;;11.07;6.03;;;;;;;;;;5077913;28;20059;-89
2023/01/26 10:05:44;;;;;;;12.75;6.50;;;;;;;;;;5094884;28;20039;-87
2023/01/26 10:08:12;;;;;;;11.50;6.05;;;;;;;;;;5076239;28;20028;-89
2023/01/26 10:10:54;;;;;;;10.77;5.55;;;;;;;;;;5075730;28;20515;-89
2023/01/26 10:13:22;;;;;;;10.02;5.32;;;;;;;;;;5106605;28;20040;-89
2023/01/26 10:15:53;;;;;;;11.98;5.45;;;;;;;;;;5078865;28;20135;-89
2023/01/26 10:18:25;;;;;;;12.75;6.05;;;;;;;;;;5096919;28;20040;-90
2023/01/26 10:20:57;;;;;;;10.55;5.72;;;;;;;;;;5096343;28;20104;-89
2023/01/26 10:23:27;;;;;;;12.00;6.43;;;;;;;;;;5060962;28;20058;-88
2023/01/26 10:25:55;;;;;;;11.95;6.82;;;;;;;;;;5094985;28;20043;-88
2023/01/26 10:28:29;;;;;;;11.25;5.97;;;;;;;;;;5096530;28;20569;-89
2023/01/26 10:30:55;;;;;;;11.00;5.55;;;;;;;;;;5095149;28;20097;-87
2023/01/26 10:33:29;;;;;;;10.93;5.75;;;;;;;;;;5083648;28;20095;-85
2023/01/26 10:35:54;;;;;;;10.82;6.07;;;;;;;;;;5099002;28;20040;-90
2023/01/26 10:38:32;;;;;;;11.70;5.55;;;;;;;;;;5096281;28;20039;-87
2023/01/26 10:41:05;;;;;;;10.63;5.47;;;;;;;;;;5061737;28;20035;-89
2023/01/26 10:46:03;;;;;;;13.32;7.22;;;;;;;;;;5098429;28;20040;-82
2023/01/26 10:48:28;;;;;;;13.50;6.55;;;;;;;;;;5103000;28;20484;-82
2023/01/26 10:51:12;;;;;;;17.63;8.80;;;;;;;;;;5084795;28;20048;-81
2023/01/26 10:53:37;;;;;;;11.80;6.15;;;;;;;;;;5103341;28;20039;-81
2023/01/26 10:56:10;;;;;;;11.20;6.38;;;;;;;;;;5103513;28;20040;-82
2023/01/26 10:58:56;;;;;;;12.48;6.57;;;;;;;;;;5103015;28;20047;-82
2023/01/26 11:01:26;;;;;;;213.25;88.95;;;;;;;;;;5103826;28;20061;-81
2023/01/26 11:03:57;;;;;;;84.70;35.00;;;;;;;;;;5102505;28;20031;-81
2023/01/26 11:06:27;;;;;;;17.80;8.52;;;;;;;;;;5085425;28;20054;-81
2023/01/26 11:08:52;;;;;;;12.40;6.80;;;;;;;;;;5103225;28;20028;-82
2023/01/26 11:11:25;;;;;;;12.68;6.90;;;;;;;;;;5085193;28;20046;-82
2023/01/26 11:14:17;;;;;;;11.75;6.85;;;;;;;;;;5103311;28;20404;-82
2023/01/26 11:17:23;;;;;;;14.95;7.47;;;;;;;;;;5103423;28;20032;-82
2023/01/26 11:20:00;;;;;;;13.13;6.80;;;;;;;;;;5099506;28;20048;-83
2023/01/26 11:22:49;;;;;;;12.43;7.07;;;;;;;;;;5064016;28;20032;-81
2023/01/26 11:25:32;;;;;;;13.40;7.13;;;;;;;;;;5078676;28;20039;-80
2023/01/26 11:28:31;;;;;;;14.05;6.50;;;;;;;;;;5098210;28;20047;-81
2023/01/26 11:31:10;;;;;;;15.32;7.50;;;;;;;;;;5098169;28;20084;-81
2023/01/26 11:33:58;;;;;;;14.07;7.68;;;;;;;;;;5097774;28;20043;-81
2023/01/26 11:36:33;;;;;;;16.95;9.70;;;;;;;;;;5079015;28;20054;-82
2023/01/26 11:39:21;;;;;;;21.90;11.23;;;;;;;;;;5095284;28;20040;-80
2023/01/26 11:42:16;;;;;;;51.40;27.80;;;;;;;;;;5080432;28;20036;-81
2023/01/26 11:45:01;;;;;;;23.58;12.75;;;;;;;;;;5097050;28;20054;-81
2023/01/26 11:47:52;;;;;;;26.88;14.68;;;;;;;;;;5096975;28;20024;-80
2023/01/26 11:50:25;;;;;;;17.35;8.65;;;;;;;;;;5097619;28;20395;-80
2023/01/26 11:53:29;;;;;;;18.05;8.77;;;;;;;;;;5079085;28;20032;-80
2023/01/26 11:56:16;;;;;;;20.52;10.15;;;;;;;;;;5077978;28;20041;-80
2023/01/26 11:59:08;;;;;;;18.92;9.00;;;;;;;;;;5096611;28;20059;-79
2023/01/26 12:01:51;;;;;;;17.98;8.73;;;;;;;;;;5096121;28;20111;-79
2023/01/26 12:04:19;;;;;;;21.48;9.38;;;;;;;;;;5094016;28;20059;-79
2023/01/26 12:06:52;;;;;;;21.45;9.60;;;;;;;;;;5095811;28;20062;-80
2023/01/26 12:09:32;;;;;;;17.42;9.25;;;;;;;;;;5095133;28;20024;-81
2023/01/26 12:12:04;;;;;;;17.92;9.15;;;;;;;;;;5075203;28;20122;-80
2023/01/26 12:15:09;;;;;;;22.35;11.80;;;;;;;;;;5081664;28;20082;-80
2023/01/26 12:18:08;;;;;;;17.02;8.60;;;;;;;;;;5063591;28;20035;-79
2023/01/26 12:20:37;;;;;;;21.08;10.13;;;;;;;;;;5101030;28;20040;-80
2023/01/26 12:23:18;;;;;;;22.83;11.65;;;;;;;;;;5101387;28;20036;-79
2023/01/26 12:25:49;;;;;;;18.48;9.00;;;;;;;;;;5081184;28;20409;-79
2023/01/26 12:28:26;;;;;;;19.95;8.93;;;;;;;;;;5099691;28;20036;-79
2023/01/26 12:31:04;;;;;;;20.33;10.05;;;;;;;;;;5100127;28;20036;-79
2023/01/26 12:33:34;;;;;;;19.73;8.95;;;;;;;;;;5082958;28;20043;-80
2023/01/26 12:36:37;;;;;;;20.02;9.48;;;;;;;;;;5099811;28;20412;-79
2023/01/26 12:39:21;;;;;;;21.63;10.13;;;;;;;;;;5081114;28;20031;-80
2023/01/26 12:41:56;;;;;;;18.10;8.50;;;;;;;;;;5098618;28;20107;-80
2023/01/26 12:44:30;;;;;;;22.60;10.18;;;;;;;;;;5096059;28;20123;-80
2023/01/26 12:47:04;;;;;;;20.73;10.23;;;;;;;;;;5097222;28;20040;-80
2023/01/26 12:49:32;;;;;;;22.95;11.82;;;;;;;;;;5081546;28;20133;-80
2023/01/26 12:52:06;;;;;;;24.17;12.93;;;;;;;;;;5081575;28;20701;-81
2023/01/26 12:54:53;;;;;;;21.23;11.25;;;;;;;;;;5080131;28;20078;-81
2023/01/26 12:57:22;;;;;;;19.13;9.40;;;;;;;;;;5097168;28;20028;-80
2023/01/26 12:59:48;;;;;;;24.70;10.18;;;;;;;;;;5099588;28;20057;-79
2023/01/26 13:02:14;;;;;;;21.52;9.07;;;;;;;;;;5100013;28;20036;-82
2023/01/26 13:04:41;;;;;;;23.88;11.90;;;;;;;;;;5098560;28;20674;-81
2023/01/26 13:07:34;;;;;;;23.08;10.32;;;;;;;;;;5081876;28;20036;-81
2023/01/26 13:10:18;;;;;;;28.20;14.05;;;;;;;;;;5099912;28;20032;-81
2023/01/26 13:12:47;;;;;;;23.48;11.32;;;;;;;;;;5098699;28;20090;-81
2023/01/26 13:15:15;;;;;;;19.08;8.52;;;;;;;;;;5079145;28;20059;-81
2023/01/26 13:17:48;;;;;;;20.58;9.25;;;;;;;;;;5079993;28;20035;-80
2023/01/26 13:20:23;;;;;;;16.85;8.23;;;;;;;;;;5095470;28;20040;-80
2023/01/26 13:22:49;;;;;;;19.77;8.80;;;;;;;;;;5095202;28;20043;-80
2023/01/26 13:25:24;;;;;;;17.83;8.30;;;;;;;;;;5076342;28;20047;-80
2023/01/26 13:28:01;;;;;;;20.30;9.18;;;;;;;;;;5095230;28;20070;-80
2023/01/26 13:30:46;;;;;;;16.40;8.07;;;;;;;;;;5094920;28;20028;-80
2023/01/26 13:33:23;;;;;;;19.77;8.80;;;;;;;;;;5079514;28;20036;-80
2023/01/26 13:35:51;;;;;;;21.20;9.02;;;;;;;;;;5097431;28;20494;-80
2023/01/26 13:38:37;;;;;;;19.38;8.52;;;;;;;;;;5098282;28;20032;-81
2023/01/26 13:41:08;;;;;;;26.52;13.13;;;;;;;;;;5079601;28;20040;-81
2023/01/26 13:43:42;;;;;;;28.08;14.40;;;;;;;;;;5097883;28;20024;-80
2023/01/26 13:46:18;;;;;;;24.73;12.18;;;;;;;;;;5097687;28;20044;-81
2023/01/26 13:48:46;;;;;;;17.52;9.45;;;;;;;;;;5079844;28;20040;-81
2023/01/26 13:51:22;;;;;;;18.70;10.10;;;;;;;;;;5096727;28;20036;-80
2023/01/26 13:53:54;;;;;;;22.77;12.63;;;;;;;;;;5095597;28;20089;-80
2023/01/26 13:56:31;;;;;;;24.58;11.70;;;;;;;;;;5095350;28;20123;-80
2023/01/26 13:59:09;;;;;;;17.55;9.02;;;;;;;;;;5096246;28;20089;-79
2023/01/26 14:01:43;;;;;;;18.17;8.65;;;;;;;;;;5078100;28;20097;-82
2023/01/26 14:04:34;;;;;;;18.13;7.90;;;;;;;;;;5075812;28;20434;-80
2023/01/26 14:07:05;;;;;;;25.30;9.15;;;;;;;;;;5094092;28;20039;-80
2023/01/26 14:09:32;;;;;;;17.15;8.10;;;;;;;;;;5097086;28;20439;-80
2023/01/26 14:12:04;;;;;;;18.05;8.68;;;;;;;;;;5098741;28;20031;-79
2023/01/26 14:14:35;;;;;;;18.33;8.85;;;;;;;;;;5078599;28;20028;-79
2023/01/26 14:17:06;;;;;;;18.48;8.82;;;;;;;;;;5096922;28;20056;-79
2023/01/26 14:19:39;;;;;;;16.02;8.05;;;;;;;;;;5096660;28;20040;-79
2023/01/26 14:22:11;;;;;;;19.23;10.65;;;;;;;;;;5078450;28;20498;-78
2023/01/26 14:24:41;;;;;;;19.20;8.98;;;;;;;;;;5095120;28;20059;-79
2023/01/26 14:27:34;;;;;;;19.05;10.27;;;;;;;;;;5096321;28;20032;-79
2023/01/26 14:30:01;;;;;;;16.20;8.00;;;;;;;;;;5078866;28;20062;-79
2023/01/26 14:32:28;;;;;;;16.08;7.95;;;;;;;;;;5096810;28;20032;-79
2023/01/26 14:35:17;;;;;;;16.45;7.05;;;;;;;;;;5096599;28;20115;-80
2023/01/26 14:37:42;;;;;;;15.73;7.30;;;;;;;;;;5078291;28;20408;-79
2023/01/26 14:40:20;;;;;;;15.50;7.32;;;;;;;;;;5078207;28;20036;-80
2023/01/26 14:42:51;;;;;;;16.85;7.75;;;;;;;;;;5095874;28;20046;-79
2023/01/26 14:45:20;;;;;;;15.95;8.10;;;;;;;;;;5094472;28;20385;-80
2023/01/26 14:47:45;;;;;;;16.45;7.57;;;;;;;;;;5095680;28;20500;-80
2023/01/26 14:50:26;;;;;;;15.70;7.80;;;;;;;;;;5094509;28;20032;-80
2023/01/26 14:52:52;;;;;;;16.20;8.05;;;;;;;;;;5094565;28;20062;-80
2023/01/26 14:55:34;;;;;;;15.52;7.65;;;;;;;;;;5095771;28;20500;-80
2023/01/26 14:58:02;;;;;;;17.08;8.05;;;;;;;;;;5079193;28;20039;-79
2023/01/26 15:00:32;;;;;;;15.63;8.05;;;;;;;;;;5079227;28;20047;-80
2023/01/26 15:03:00;;;;;;;14.50;7.13;;;;;;;;;;5095646;28;20103;-80
2023/01/26 15:05:35;;;;;;;16.58;7.55;;;;;;;;;;5095047;28;20047;-79
2023/01/26 15:08:04;;;;;;;15.38;7.28;;;;;;;;;;5076380;28;20097;-80
2023/01/26 15:10:32;;;;;;;21.58;10.65;;;;;;;;;;5079365;28;20043;-79
2023/01/26 15:13:04;;;;;;;19.30;8.65;;;;;;;;;;5093998;28;20392;-80
2023/01/26 15:15:33;;;;;;;18.38;8.07;;;;;;;;;;5095680;28;20036;-80
2023/01/26 15:18:13;;;;;;;17.00;7.40;;;;;;;;;;5097092;28;20039;-79
2023/01/26 15:20:47;;;;;;;20.10;8.70;;;;;;;;;;5096828;28;20039;-80
2023/01/26 15:23:23;;;;;;;15.43;7.50;;;;;;;;;;5063051;28;20036;-80
2023/01/26 15:25:49;;;;;;;15.70;6.97;;;;;;;;;;5061865;28;20556;-80
2023/01/26 15:28:17;;;;;;;14.73;7.53;;;;;;;;;;5097893;28;20051;-80
2023/01/26 15:30:47;;;;;;;16.98;8.32;;;;;;;;;;5097375;28;20492;-80
2023/01/26 15:33:34;;;;;;;16.25;7.50;;;;;;;;;;5079320;28;20042;-79
2023/01/26 15:36:00;;;;;;;13.85;7.00;;;;;;;;;;5095588;28;20051;-79